Time;durP1;ratioP1;P1;durP2;ratioP2;P2;SDS_P1;SDS_P2;PMS_P1;PMS_P2;Temp;Humidity;BMP_temperature;BMP_pressure;BME280_temperature;BME280_humidity;BME280_pressure;Samples;Min_cycle;Max_cycle;Signal;HPM_P1;HPM_P2
2021/01/28 00:01:18;;;;;;;39.35;12.90;;;;;;;;;;5066805;28;20021;-67
2021/01/28 00:03:44;;;;;;;28.50;12.23;;;;;;;;;;5065387;28;20017;-66
2021/01/28 00:06:09;;;;;;;24.58;11.02;;;;;;;;;;5065249;28;20397;-66
2021/01/28 00:08:34;;;;;;;29.48;12.60;;;;;;;;;;5064612;28;20392;-66
2021/01/28 00:11:00;;;;;;;24.60;10.40;;;;;;;;;;5064770;28;20411;-66
2021/01/28 00:13:25;;;;;;;36.45;14.02;;;;;;;;;;5065197;28;20024;-67
2021/01/28 00:15:50;;;;;;;27.75;12.20;;;;;;;;;;5064221;28;20119;-66
2021/01/28 00:18:16;;;;;;;23.08;9.93;;;;;;;;;;5064911;28;20028;-66
2021/01/28 00:20:43;;;;;;;26.95;13.60;;;;;;;;;;5064417;28;20048;-66
2021/01/28 00:23:09;;;;;;;30.15;12.95;;;;;;;;;;5066188;28;20037;-66
2021/01/28 00:25:34;;;;;;;26.80;12.40;;;;;;;;;;5068969;28;20034;-66
2021/01/28 00:28:00;;;;;;;29.63;12.10;;;;;;;;;;5070247;28;20047;-66
2021/01/28 00:30:29;;;;;;;37.97;10.88;;;;;;;;;;5069263;28;20017;-66
2021/01/28 00:32:55;;;;;;;26.25;11.57;;;;;;;;;;5069197;28;20024;-66
2021/01/28 00:35:29;;;;;;;31.67;13.15;;;;;;;;;;5069719;28;20630;-66
2021/01/28 00:37:55;;;;;;;23.77;10.48;;;;;;;;;;5051507;28;20385;-66
2021/01/28 00:40:20;;;;;;;28.45;12.95;;;;;;;;;;5068577;28;20025;-66
2021/01/28 00:42:46;;;;;;;20.10;8.05;;;;;;;;;;5066838;28;20024;-66
2021/01/28 00:45:12;;;;;;;30.73;12.23;;;;;;;;;;5069142;28;20248;-66
2021/01/28 00:47:37;;;;;;;35.00;13.30;;;;;;;;;;5068876;28;20511;-66
2021/01/28 00:50:02;;;;;;;33.92;12.32;;;;;;;;;;5069604;28;20028;-66
2021/01/28 00:52:27;;;;;;;34.00;12.73;;;;;;;;;;5068936;28;20024;-66
2021/01/28 00:54:53;;;;;;;27.40;12.00;;;;;;;;;;5068949;28;20034;-66
2021/01/28 00:57:18;;;;;;;30.77;12.80;;;;;;;;;;5069055;28;20279;-67
2021/01/28 00:59:43;;;;;;;32.77;12.83;;;;;;;;;;5068070;28;20271;-67
2021/01/28 01:02:08;;;;;;;35.15;12.90;;;;;;;;;;5069297;28;20270;-66
2021/01/28 01:04:33;;;;;;;31.33;13.13;;;;;;;;;;5069237;28;20021;-66
2021/01/28 01:06:58;;;;;;;39.22;15.23;;;;;;;;;;5068501;28;20273;-66
2021/01/28 01:09:25;;;;;;;39.00;14.17;;;;;;;;;;5068574;28;20086;-66
2021/01/28 01:11:50;;;;;;;28.20;11.32;;;;;;;;;;5068799;28;20267;-66
2021/01/28 01:14:16;;;;;;;28.52;13.05;;;;;;;;;;5069344;28;20038;-66
2021/01/28 01:16:41;;;;;;;40.93;14.97;;;;;;;;;;5068704;28;20052;-66
2021/01/28 01:19:06;;;;;;;32.75;12.45;;;;;;;;;;5068359;28;20352;-66
2021/01/28 01:21:31;;;;;;;25.08;9.23;;;;;;;;;;5068456;28;20183;-66
2021/01/28 01:23:57;;;;;;;31.73;12.63;;;;;;;;;;5066413;28;20036;-67
2021/01/28 01:26:22;;;;;;;34.47;11.50;;;;;;;;;;5067428;28;20255;-66
2021/01/28 01:28:47;;;;;;;24.53;11.83;;;;;;;;;;5068126;28;20258;-66
2021/01/28 01:31:12;;;;;;;30.48;10.68;;;;;;;;;;5065392;28;20267;-66
2021/01/28 01:33:38;;;;;;;38.57;13.10;;;;;;;;;;5067718;28;20149;-66
2021/01/28 01:36:03;;;;;;;37.55;13.40;;;;;;;;;;5067795;28;20777;-66
2021/01/28 01:38:29;;;;;;;26.35;9.73;;;;;;;;;;5067154;28;20514;-66
2021/01/28 01:40:55;;;;;;;30.30;8.38;;;;;;;;;;5067039;28;20037;-67
2021/01/28 01:43:21;;;;;;;31.13;12.20;;;;;;;;;;5068362;28;20020;-66
2021/01/28 01:45:47;;;;;;;30.80;12.27;;;;;;;;;;5067253;28;20027;-66
2021/01/28 01:48:28;;;;;;;38.10;12.25;;;;;;;;;;5068038;28;20063;-66
2021/01/28 01:50:55;;;;;;;31.90;11.48;;;;;;;;;;5067528;28;20621;-66
2021/01/28 01:53:34;;;;;;;33.60;12.23;;;;;;;;;;5067169;28;20024;-66
2021/01/28 01:56:04;;;;;;;25.50;8.95;;;;;;;;;;5067733;28;20545;-66
2021/01/28 01:58:37;;;;;;;33.10;9.68;;;;;;;;;;5066450;28;20028;-66
2021/01/28 02:01:03;;;;;;;29.75;12.10;;;;;;;;;;5067305;28;20048;-66
2021/01/28 02:03:30;;;;;;;32.08;12.07;;;;;;;;;;5067961;28;20063;-66
2021/01/28 02:06:04;;;;;;;30.42;8.85;;;;;;;;;;5065790;28;20440;-66
2021/01/28 02:08:29;;;;;;;25.13;9.05;;;;;;;;;;5064641;28;20021;-66
2021/01/28 02:10:55;;;;;;;32.40;12.05;;;;;;;;;;5065219;28;20016;-66
2021/01/28 02:13:20;;;;;;;32.50;11.93;;;;;;;;;;5066773;28;20052;-66
2021/01/28 02:15:45;;;;;;;25.95;11.57;;;;;;;;;;5066499;28;20043;-66
2021/01/28 02:18:10;;;;;;;29.52;10.43;;;;;;;;;;5068227;28;20031;-66
2021/01/28 02:20:56;;;;;;;44.92;12.10;;;;;;;;;;5066304;28;20029;-66
2021/01/28 02:23:27;;;;;;;14.32;6.63;;;;;;;;;;5067017;28;20104;-66
2021/01/28 02:25:53;;;;;;;33.03;11.77;;;;;;;;;;5065897;28;20534;-66
2021/01/28 02:28:19;;;;;;;25.33;9.27;;;;;;;;;;5068253;28;20289;-66
2021/01/28 02:30:46;;;;;;;25.77;8.15;;;;;;;;;;5067069;28;20020;-66
2021/01/28 02:33:11;;;;;;;24.00;6.35;;;;;;;;;;5067325;28;20027;-66
2021/01/28 02:35:37;;;;;;;28.15;10.35;;;;;;;;;;5066258;28;20025;-66
2021/01/28 02:38:05;;;;;;;25.85;11.25;;;;;;;;;;5068365;28;20021;-66
2021/01/28 02:40:31;;;;;;;38.92;13.32;;;;;;;;;;5065340;28;20442;-66
2021/01/28 02:42:56;;;;;;;33.47;10.82;;;;;;;;;;5066919;28;20020;-66
2021/01/28 02:45:33;;;;;;;31.80;9.88;;;;;;;;;;5066571;28;20444;-66
2021/01/28 02:47:59;;;;;;;26.08;10.18;;;;;;;;;;5065689;28;20090;-66
2021/01/28 02:50:25;;;;;;;27.15;9.40;;;;;;;;;;5066715;28;20013;-66
2021/01/28 02:52:54;;;;;;;29.17;10.52;;;;;;;;;;5066656;28;20024;-66
2021/01/28 02:55:19;;;;;;;22.60;8.57;;;;;;;;;;5066289;28;20068;-66
2021/01/28 02:57:45;;;;;;;29.77;9.00;;;;;;;;;;5066101;28;20538;-65
2021/01/28 03:00:11;;;;;;;20.35;6.95;;;;;;;;;;5066526;28;20382;-66
2021/01/28 03:02:36;;;;;;;20.05;7.22;;;;;;;;;;5064460;28;20091;-66
2021/01/28 03:05:02;;;;;;;19.10;6.90;;;;;;;;;;5066680;28;20033;-66
2021/01/28 03:07:27;;;;;;;13.45;6.70;;;;;;;;;;5065779;28;20025;-66
2021/01/28 03:09:52;;;;;;;11.63;4.03;;;;;;;;;;5065307;28;20066;-66
2021/01/28 03:12:17;;;;;;;12.55;5.15;;;;;;;;;;5066768;28;20304;-66
2021/01/28 03:14:43;;;;;;;11.73;3.97;;;;;;;;;;5066645;28;20020;-66
2021/01/28 03:17:08;;;;;;;20.93;7.00;;;;;;;;;;5066680;28;20051;-66
2021/01/28 03:19:33;;;;;;;25.75;7.50;;;;;;;;;;5065465;28;20270;-66
2021/01/28 03:21:58;;;;;;;17.42;5.35;;;;;;;;;;5066455;28;20503;-66
2021/01/28 03:24:24;;;;;;;14.32;5.82;;;;;;;;;;5064251;28;20028;-66
2021/01/28 03:26:50;;;;;;;15.73;6.97;;;;;;;;;;5066144;28;20364;-66
2021/01/28 03:29:15;;;;;;;11.00;4.75;;;;;;;;;;5064926;28;20016;-66
2021/01/28 03:31:40;;;;;;;12.27;4.13;;;;;;;;;;5065065;28;20066;-66
2021/01/28 03:34:06;;;;;;;14.23;5.93;;;;;;;;;;5066221;28;20263;-66
2021/01/28 03:36:31;;;;;;;15.90;6.68;;;;;;;;;;5065444;28;20097;-66
2021/01/28 03:38:56;;;;;;;17.13;5.95;;;;;;;;;;5065846;28;20483;-66
2021/01/28 03:41:22;;;;;;;26.67;6.35;;;;;;;;;;5065332;28;20027;-66
2021/01/28 03:43:47;;;;;;;17.17;6.88;;;;;;;;;;5064691;28;20024;-66
2021/01/28 03:46:12;;;;;;;16.73;6.10;;;;;;;;;;5066127;28;20031;-66
2021/01/28 03:48:38;;;;;;;17.97;5.97;;;;;;;;;;5066102;28;20039;-66
2021/01/28 03:51:04;;;;;;;12.77;4.68;;;;;;;;;;5064671;28;20349;-66
2021/01/28 03:53:29;;;;;;;7.70;3.92;;;;;;;;;;5066716;28;20028;-66
2021/01/28 03:55:54;;;;;;;14.10;5.18;;;;;;;;;;5072152;22;20488;-66
2021/01/28 03:58:19;;;;;;;16.30;7.47;;;;;;;;;;5079414;28;20129;-66
2021/01/28 04:00:45;;;;;;;10.98;4.65;;;;;;;;;;5078431;28;20068;-66
2021/01/28 04:03:10;;;;;;;11.93;4.43;;;;;;;;;;5079845;28;20047;-66
2021/01/28 04:05:35;;;;;;;14.68;6.95;;;;;;;;;;5081664;28;20320;-65
2021/01/28 04:08:00;;;;;;;13.90;5.93;;;;;;;;;;5070953;28;20026;-67
2021/01/28 04:10:27;;;;;;;13.05;6.00;;;;;;;;;;5067958;28;20013;-66
2021/01/28 04:12:52;;;;;;;6.45;3.13;;;;;;;;;;5069272;28;20078;-66
2021/01/28 04:15:18;;;;;;;16.70;6.80;;;;;;;;;;5069859;28;20422;-66
2021/01/28 04:17:44;;;;;;;24.58;9.00;;;;;;;;;;5070790;28;20101;-66
2021/01/28 04:20:10;;;;;;;16.50;6.38;;;;;;;;;;5066805;28;20384;-66
2021/01/28 04:22:35;;;;;;;18.17;8.68;;;;;;;;;;5067810;28;20033;-66
2021/01/28 04:25:00;;;;;;;16.98;6.47;;;;;;;;;;5067671;28;20032;-66
2021/01/28 04:27:26;;;;;;;15.18;6.78;;;;;;;;;;5068926;28;20013;-65
2021/01/28 04:29:51;;;;;;;19.27;8.02;;;;;;;;;;5070098;28;20021;-65
2021/01/28 04:32:16;;;;;;;23.77;8.23;;;;;;;;;;5068289;28;20020;-66
2021/01/28 04:34:41;;;;;;;20.10;9.02;;;;;;;;;;5050656;28;20032;-65
2021/01/28 04:37:07;;;;;;;4.90;2.30;;;;;;;;;;5069982;28;20060;-66
2021/01/28 04:39:32;;;;;;;15.30;7.60;;;;;;;;;;5069914;28;20027;-66
2021/01/28 04:41:57;;;;;;;16.30;8.20;;;;;;;;;;5069803;28;20027;-66
2021/01/28 04:44:22;;;;;;;12.25;4.43;;;;;;;;;;5068749;28;20079;-66
2021/01/28 04:46:50;;;;;;;14.82;5.95;;;;;;;;;;5069266;28;20531;-66
2021/01/28 04:49:16;;;;;;;17.48;8.02;;;;;;;;;;5067385;28;20395;-66
2021/01/28 04:51:43;;;;;;;8.23;3.55;;;;;;;;;;5050053;28;20027;-66
2021/01/28 04:54:08;;;;;;;19.00;7.30;;;;;;;;;;5048854;28;20052;-66
2021/01/28 04:56:33;;;;;;;16.35;6.13;;;;;;;;;;5069357;28;20048;-66
2021/01/28 04:59:08;;;;;;;16.35;7.05;;;;;;;;;;5069109;28;20078;-66
2021/01/28 05:01:34;;;;;;;9.35;3.85;;;;;;;;;;5069221;28;20020;-66
2021/01/28 05:04:01;;;;;;;11.23;4.95;;;;;;;;;;5068740;28;20023;-67
2021/01/28 05:06:26;;;;;;;4.93;2.42;;;;;;;;;;5068520;28;20016;-65
2021/01/28 05:08:51;;;;;;;7.38;3.70;;;;;;;;;;5067939;28;20017;-67
2021/01/28 05:11:18;;;;;;;11.95;4.85;;;;;;;;;;5069171;28;20754;-65
2021/01/28 05:13:44;;;;;;;9.07;4.68;;;;;;;;;;5068162;28;20471;-65
2021/01/28 05:16:20;;;;;;;8.43;3.97;;;;;;;;;;5069756;28;20078;-66
2021/01/28 05:18:55;;;;;;;6.57;3.00;;;;;;;;;;5068772;28;20044;-65
2021/01/28 05:21:22;;;;;;;10.63;4.30;;;;;;;;;;5067691;28;20058;-66
2021/01/28 05:23:47;;;;;;;11.70;4.72;;;;;;;;;;5069470;28;20017;-66
2021/01/28 05:26:36;;;;;;;11.70;5.45;;;;;;;;;;5069026;28;20043;-66
2021/01/28 05:29:15;;;;;;;18.45;6.80;;;;;;;;;;5058306;28;20230;-66
2021/01/28 05:31:40;;;;;;;20.00;8.00;;;;;;;;;;5069506;28;20016;-65
2021/01/28 05:34:07;;;;;;;15.70;5.85;;;;;;;;;;5068193;28;20031;-66
2021/01/28 05:36:32;;;;;;;19.50;8.00;;;;;;;;;;5068658;28;20056;-65
2021/01/28 05:38:57;;;;;;;8.90;4.15;;;;;;;;;;5068623;28;20064;-65
2021/01/28 05:41:25;;;;;;;7.43;3.90;;;;;;;;;;5068147;28;20704;-66
2021/01/28 05:43:51;;;;;;;16.33;7.50;;;;;;;;;;5067801;28;20060;-66
2021/01/28 05:46:27;;;;;;;5.82;3.33;;;;;;;;;;5068815;28;20047;-65
2021/01/28 05:49:05;;;;;;;13.63;6.05;;;;;;;;;;5070311;28;20088;-65
2021/01/28 05:51:39;;;;;;;6.45;2.78;;;;;;;;;;5065178;28;20816;-66
2021/01/28 05:54:06;;;;;;;16.35;7.13;;;;;;;;;;5064919;28;20545;-66
2021/01/28 05:56:33;;;;;;;12.30;4.95;;;;;;;;;;5066287;28;20400;-66
2021/01/28 05:59:14;;;;;;;9.73;3.92;;;;;;;;;;5064812;28;20017;-66
2021/01/28 06:01:45;;;;;;;7.25;3.78;;;;;;;;;;5065257;28;20055;-66
2021/01/28 06:04:29;;;;;;;12.02;5.13;;;;;;;;;;5061990;28;20028;-65
2021/01/28 06:07:20;;;;;;;8.27;3.22;;;;;;;;;;5066816;28;20043;-66
2021/01/28 06:09:45;;;;;;;14.07;6.50;;;;;;;;;;5062451;28;20016;-66
2021/01/28 06:12:20;;;;;;;12.65;5.07;;;;;;;;;;5065956;28;20876;-66
2021/01/28 06:15:04;;;;;;;15.98;6.85;;;;;;;;;;5065904;28;20100;-66
2021/01/28 06:17:48;;;;;;;6.30;2.92;;;;;;;;;;5065791;28;20028;-66
2021/01/28 06:20:31;;;;;;;9.98;3.13;;;;;;;;;;5063609;28;20514;-66
2021/01/28 06:23:02;;;;;;;12.48;6.85;;;;;;;;;;5064596;28;20039;-66
2021/01/28 06:25:30;;;;;;;12.30;5.90;;;;;;;;;;5065553;28;20111;-66
2021/01/28 06:28:03;;;;;;;14.68;5.97;;;;;;;;;;5065019;28;20482;-66
2021/01/28 06:30:37;;;;;;;15.93;6.13;;;;;;;;;;5065140;28;20120;-66
2021/01/28 06:33:21;;;;;;;10.07;5.13;;;;;;;;;;5065160;28;20016;-66
2021/01/28 06:36:01;;;;;;;6.72;3.47;;;;;;;;;;5063642;28;20028;-66
2021/01/28 06:38:42;;;;;;;10.77;5.20;;;;;;;;;;5065043;28;20059;-66
2021/01/28 06:41:12;;;;;;;14.98;6.60;;;;;;;;;;5064834;28;20523;-66
2021/01/28 06:43:44;;;;;;;14.18;6.10;;;;;;;;;;5065283;28;20682;-66
2021/01/28 06:46:19;;;;;;;12.60;4.25;;;;;;;;;;5064389;28;20700;-66
2021/01/28 06:48:45;;;;;;;16.05;6.70;;;;;;;;;;5065802;28;20032;-66
2021/01/28 06:51:26;;;;;;;16.65;6.32;;;;;;;;;;5064545;28;20500;-66
2021/01/28 06:53:51;;;;;;;12.95;4.53;;;;;;;;;;5065306;28;20554;-66
2021/01/28 06:56:38;;;;;;;10.13;5.47;;;;;;;;;;5064977;28;20103;-66
2021/01/28 06:59:03;;;;;;;17.27;7.65;;;;;;;;;;5065561;28;20048;-66
2021/01/28 07:01:28;;;;;;;13.43;4.97;;;;;;;;;;5064631;28;20067;-66
2021/01/28 07:03:59;;;;;;;16.02;5.97;;;;;;;;;;5063367;28;20743;-66
2021/01/28 07:06:43;;;;;;;12.77;6.72;;;;;;;;;;5066402;28;20282;-66
2021/01/28 07:09:08;;;;;;;15.30;6.97;;;;;;;;;;5066157;28;20008;-66
2021/01/28 07:11:41;;;;;;;12.63;4.45;;;;;;;;;;5066055;28;20029;-66
2021/01/28 07:14:07;;;;;;;14.05;5.68;;;;;;;;;;5066028;28;20032;-66
2021/01/28 07:16:51;;;;;;;10.05;4.45;;;;;;;;;;5065854;28;20168;-65
2021/01/28 07:19:18;;;;;;;9.57;4.95;;;;;;;;;;5066847;28;20024;-64
2021/01/28 07:21:47;;;;;;;20.23;7.70;;;;;;;;;;5065261;28;20556;-66
2021/01/28 07:24:25;;;;;;;8.73;4.32;;;;;;;;;;5068240;28;20052;-66
2021/01/28 07:26:55;;;;;;;10.05;5.18;;;;;;;;;;5069186;28;20020;-66
2021/01/28 07:29:32;;;;;;;14.82;8.43;;;;;;;;;;5069560;28;20024;-66
2021/01/28 07:31:58;;;;;;;13.68;6.78;;;;;;;;;;5069657;28;20047;-65
2021/01/28 07:34:23;;;;;;;9.48;4.28;;;;;;;;;;5070148;28;20027;-66
2021/01/28 07:36:52;;;;;;;5.57;2.85;;;;;;;;;;5069473;28;20021;-66
2021/01/28 07:39:29;;;;;;;14.38;7.00;;;;;;;;;;5070284;28;20388;-66
2021/01/28 07:41:56;;;;;;;13.55;7.00;;;;;;;;;;5070144;28;20027;-66
2021/01/28 07:44:24;;;;;;;10.35;5.30;;;;;;;;;;5070530;28;20070;-66
2021/01/28 07:46:50;;;;;;;13.07;5.07;;;;;;;;;;5065899;28;20012;-65
2021/01/28 07:49:15;;;;;;;16.10;7.03;;;;;;;;;;5069931;28;20025;-66
2021/01/28 07:51:50;;;;;;;11.23;5.90;;;;;;;;;;5066797;28;20051;-66
2021/01/28 07:54:22;;;;;;;14.32;5.85;;;;;;;;;;5064567;28;20025;-65
2021/01/28 07:56:48;;;;;;;13.82;6.40;;;;;;;;;;5066980;28;20484;-66
2021/01/28 07:59:22;;;;;;;12.18;6.78;;;;;;;;;;5064649;28;20018;-66
2021/01/28 08:01:50;;;;;;;13.10;6.63;;;;;;;;;;5064556;28;20114;-64
2021/01/28 08:04:30;;;;;;;12.15;6.07;;;;;;;;;;5066318;28;20025;-66
2021/01/28 08:06:57;;;;;;;8.85;3.58;;;;;;;;;;5066308;28;20072;-66
2021/01/28 08:09:22;;;;;;;10.30;4.78;;;;;;;;;;5066464;28;20032;-66
2021/01/28 08:11:49;;;;;;;11.52;6.40;;;;;;;;;;5065215;28;20038;-65
2021/01/28 08:14:14;;;;;;;11.80;5.95;;;;;;;;;;5066950;28;20016;-65
2021/01/28 08:16:40;;;;;;;13.90;6.93;;;;;;;;;;5067906;28;20029;-65
2021/01/28 08:19:09;;;;;;;11.82;5.20;;;;;;;;;;5066214;28;20021;-65
2021/01/28 08:21:35;;;;;;;12.82;6.00;;;;;;;;;;5063783;28;20156;-65
2021/01/28 08:24:20;;;;;;;4.35;2.55;;;;;;;;;;5065954;28;20095;-65
2021/01/28 08:26:45;;;;;;;10.88;4.90;;;;;;;;;;5068786;28;20388;-65
2021/01/28 08:29:15;;;;;;;11.85;5.95;;;;;;;;;;5066769;28;20024;-66
2021/01/28 08:31:45;;;;;;;12.93;5.75;;;;;;;;;;5067437;28;20059;-66
2021/01/28 08:34:19;;;;;;;12.45;5.18;;;;;;;;;;5067352;28;20024;-66
2021/01/28 08:36:52;;;;;;;12.05;5.32;;;;;;;;;;5067587;28;20056;-66
2021/01/28 08:39:19;;;;;;;10.05;5.35;;;;;;;;;;5066425;28;20028;-66
2021/01/28 08:41:45;;;;;;;6.03;3.03;;;;;;;;;;5066641;28;20086;-66
2021/01/28 08:44:12;;;;;;;7.55;4.40;;;;;;;;;;5067730;28;20078;-66
2021/01/28 08:46:39;;;;;;;7.25;4.10;;;;;;;;;;5070932;28;20032;-66
2021/01/28 08:49:15;;;;;;;5.47;2.45;;;;;;;;;;5070546;28;20020;-66
2021/01/28 08:51:41;;;;;;;5.82;1.48;;;;;;;;;;5069235;28;20013;-66
2021/01/28 08:54:15;;;;;;;3.88;2.35;;;;;;;;;;5068008;28;20044;-66
2021/01/28 08:56:41;;;;;;;3.92;1.92;;;;;;;;;;5069595;28;20477;-66
2021/01/28 08:59:09;;;;;;;6.25;3.00;;;;;;;;;;5070372;28;20386;-66
2021/01/28 09:01:39;;;;;;;5.20;2.10;;;;;;;;;;5070077;28;20024;-65
2021/01/28 09:04:22;;;;;;;4.70;2.75;;;;;;;;;;5068291;28;20748;-66
2021/01/28 09:06:48;;;;;;;17.88;2.80;;;;;;;;;;5069681;28;20120;-66
2021/01/28 09:09:32;;;;;;;4.97;2.15;;;;;;;;;;5070485;28;20099;-65
2021/01/28 09:12:16;;;;;;;5.70;3.03;;;;;;;;;;5069587;28;20021;-66
2021/01/28 09:14:42;;;;;;;8.02;2.88;;;;;;;;;;5067518;28;20024;-66
2021/01/28 09:17:26;;;;;;;7.28;3.55;;;;;;;;;;5068951;28;20028;-66
2021/01/28 09:19:53;;;;;;;8.18;3.15;;;;;;;;;;5069392;28;20020;-66
2021/01/28 09:22:25;;;;;;;4.97;2.55;;;;;;;;;;5069643;28;20024;-66
2021/01/28 09:24:50;;;;;;;6.78;3.88;;;;;;;;;;5070252;28;20020;-66
2021/01/28 09:27:16;;;;;;;5.93;3.10;;;;;;;;;;5071019;28;20074;-65
2021/01/28 09:29:42;;;;;;;7.22;3.50;;;;;;;;;;5068819;28;20020;-65
2021/01/28 09:32:13;;;;;;;4.95;2.75;;;;;;;;;;5069843;28;20395;-66
2021/01/28 09:34:38;;;;;;;8.38;4.03;;;;;;;;;;5070726;28;20028;-66
2021/01/28 09:37:05;;;;;;;5.57;2.95;;;;;;;;;;5069738;28;20013;-66
2021/01/28 09:39:32;;;;;;;4.35;2.47;;;;;;;;;;5071800;28;20052;-66
2021/01/28 09:42:09;;;;;;;7.88;3.05;;;;;;;;;;5066400;28;20028;-66
2021/01/28 09:44:39;;;;;;;6.78;3.80;;;;;;;;;;5068249;28;20021;-66
2021/01/28 09:47:19;;;;;;;4.53;2.30;;;;;;;;;;5070448;28;20016;-66
2021/01/28 09:49:45;;;;;;;5.30;2.25;;;;;;;;;;5070526;28;20267;-66
2021/01/28 09:52:19;;;;;;;3.83;2.03;;;;;;;;;;5068926;28;20047;-66
2021/01/28 09:54:48;;;;;;;5.10;2.95;;;;;;;;;;5068545;28;20476;-67
2021/01/28 09:57:13;;;;;;;2.80;1.45;;;;;;;;;;5070044;28;20036;-66
2021/01/28 09:59:38;;;;;;;5.32;3.50;;;;;;;;;;5066577;28;20105;-66
2021/01/28 10:02:03;;;;;;;7.15;3.25;;;;;;;;;;5068316;28;20040;-66
2021/01/28 10:04:28;;;;;;;5.35;1.67;;;;;;;;;;5049475;28;20119;-66
2021/01/28 10:06:54;;;;;;;6.30;2.20;;;;;;;;;;5066180;28;20017;-66
2021/01/28 10:09:19;;;;;;;3.30;2.57;;;;;;;;;;5067353;28;20294;-66
2021/01/28 10:11:44;;;;;;;1.50;1.08;;;;;;;;;;5068008;28;20277;-66
2021/01/28 10:14:10;;;;;;;7.50;2.80;;;;;;;;;;5065076;28;20021;-66
2021/01/28 10:16:35;;;;;;;4.97;2.37;;;;;;;;;;5069805;28;20036;-66
2021/01/28 10:19:00;;;;;;;3.92;2.00;;;;;;;;;;5069163;28;20281;-65
2021/01/28 10:21:25;;;;;;;3.95;1.58;;;;;;;;;;5069760;28;20048;-65
2021/01/28 10:23:51;;;;;;;6.15;2.58;;;;;;;;;;5067119;28;20478;-66
2021/01/28 10:26:16;;;;;;;4.93;2.53;;;;;;;;;;5068658;28;20059;-65
2021/01/28 10:28:41;;;;;;;6.25;2.42;;;;;;;;;;5069503;28;20029;-66
2021/01/28 10:31:06;;;;;;;2.67;1.30;;;;;;;;;;5070235;28;20416;-65
2021/01/28 10:33:32;;;;;;;4.57;2.47;;;;;;;;;;5070012;28;20259;-65
2021/01/28 10:35:58;;;;;;;4.80;2.30;;;;;;;;;;5067962;28;20361;-65
2021/01/28 10:38:23;;;;;;;3.20;1.85;;;;;;;;;;5068027;28;20027;-69
2021/01/28 10:40:50;;;;;;;2.10;1.30;;;;;;;;;;5067428;28;20028;-66
2021/01/28 10:43:15;;;;;;;3.70;2.05;;;;;;;;;;5067643;28;20020;-66
2021/01/28 10:45:41;;;;;;;4.68;3.63;;;;;;;;;;5067245;28;20046;-66
2021/01/28 10:48:06;;;;;;;4.32;1.67;;;;;;;;;;5066275;28;20024;-66
2021/01/28 10:50:32;;;;;;;8.73;3.70;;;;;;;;;;5068805;28;20020;-66
2021/01/28 10:52:57;;;;;;;4.00;2.25;;;;;;;;;;5068476;28;20016;-66
2021/01/28 10:55:24;;;;;;;3.70;2.08;;;;;;;;;;5069914;28;20024;-66
2021/01/28 10:57:49;;;;;;;2.55;1.55;;;;;;;;;;5068038;28;20024;-66
2021/01/28 11:00:15;;;;;;;8.55;2.47;;;;;;;;;;5068817;28;20027;-66
2021/01/28 11:02:40;;;;;;;5.60;2.40;;;;;;;;;;5067994;28;20024;-66
2021/01/28 11:05:06;;;;;;;8.57;3.00;;;;;;;;;;5068303;28;20541;-66
2021/01/28 11:07:31;;;;;;;6.30;3.28;;;;;;;;;;5068585;28;20095;-65
2021/01/28 11:09:57;;;;;;;5.00;2.65;;;;;;;;;;5069061;28;20159;-66
2021/01/28 11:12:22;;;;;;;9.82;3.30;;;;;;;;;;5069062;28;20024;-65
2021/01/28 11:14:47;;;;;;;8.27;3.58;;;;;;;;;;5069305;28;20134;-66
2021/01/28 11:17:12;;;;;;;5.20;2.73;;;;;;;;;;5068970;28;20059;-66
2021/01/28 11:19:38;;;;;;;6.90;2.53;;;;;;;;;;5067091;28;20759;-66
2021/01/28 11:22:03;;;;;;;6.65;3.20;;;;;;;;;;5068436;28;20060;-67
2021/01/28 11:24:28;;;;;;;4.28;2.92;;;;;;;;;;5069471;28;20085;-65
2021/01/28 11:26:53;;;;;;;6.53;3.50;;;;;;;;;;5066994;28;20542;-66
2021/01/28 11:29:22;;;;;;;4.15;2.60;;;;;;;;;;5066851;28;20028;-66
2021/01/28 11:31:47;;;;;;;4.60;2.65;;;;;;;;;;5066807;28;20342;-65
2021/01/28 11:34:12;;;;;;;4.57;2.65;;;;;;;;;;5066330;28;20443;-65
2021/01/28 11:36:37;;;;;;;5.25;2.53;;;;;;;;;;5067832;28;20488;-66
2021/01/28 11:39:02;;;;;;;6.63;3.33;;;;;;;;;;5067665;28;20036;-65
2021/01/28 11:41:28;;;;;;;7.32;3.22;;;;;;;;;;5067336;28;20332;-66
2021/01/28 11:43:53;;;;;;;5.18;2.58;;;;;;;;;;5068597;28;20488;-65
2021/01/28 11:46:18;;;;;;;5.18;2.50;;;;;;;;;;5069071;28;20111;-66
2021/01/28 11:48:43;;;;;;;6.78;2.55;;;;;;;;;;5066945;28;20024;-66
2021/01/28 11:51:08;;;;;;;4.03;2.27;;;;;;;;;;5067155;28;20051;-66
2021/01/28 11:53:33;;;;;;;5.53;2.35;;;;;;;;;;5068327;28;20353;-66
2021/01/28 11:55:59;;;;;;;4.53;2.40;;;;;;;;;;5066441;28;20016;-66
2021/01/28 11:58:24;;;;;;;4.18;2.25;;;;;;;;;;5068630;28;20658;-66
2021/01/28 12:00:50;;;;;;;7.00;2.92;;;;;;;;;;5068270;28;20020;-66
2021/01/28 12:03:15;;;;;;;6.07;3.00;;;;;;;;;;5069464;28;20091;-66
2021/01/28 12:05:41;;;;;;;8.65;3.28;;;;;;;;;;5069613;28;20020;-66
2021/01/28 12:08:06;;;;;;;3.92;2.20;;;;;;;;;;5067969;28;20081;-66
2021/01/28 12:10:32;;;;;;;5.68;2.72;;;;;;;;;;5068950;28;20137;-66
2021/01/28 12:12:58;;;;;;;3.50;2.08;;;;;;;;;;5067352;28;20028;-66
2021/01/28 12:15:24;;;;;;;6.15;2.25;;;;;;;;;;5068284;28;20020;-66
2021/01/28 12:17:50;;;;;;;4.13;2.40;;;;;;;;;;5067943;28;20291;-66
2021/01/28 12:20:16;;;;;;;5.40;2.25;;;;;;;;;;5071077;28;20087;-66
2021/01/28 12:22:41;;;;;;;3.60;2.10;;;;;;;;;;5070560;28;20028;-66
2021/01/28 12:25:07;;;;;;;3.53;2.40;;;;;;;;;;5071107;28;20108;-66
2021/01/28 12:27:33;;;;;;;7.68;2.53;;;;;;;;;;5072958;28;20020;-66
2021/01/28 12:30:00;;;;;;;8.23;2.80;;;;;;;;;;5072661;28;20020;-66
2021/01/28 12:32:26;;;;;;;10.57;3.83;;;;;;;;;;5072801;28;20100;-66
2021/01/28 12:34:51;;;;;;;5.90;3.58;;;;;;;;;;5070722;28;20108;-66
2021/01/28 12:37:16;;;;;;;5.10;2.90;;;;;;;;;;5066398;28;20028;-66
2021/01/28 12:39:41;;;;;;;6.20;2.47;;;;;;;;;;5072058;28;20361;-66
2021/01/28 12:42:07;;;;;;;5.07;2.35;;;;;;;;;;5072076;28;20035;-66
2021/01/28 12:44:32;;;;;;;3.47;2.20;;;;;;;;;;5073018;28;20430;-66
2021/01/28 12:46:57;;;;;;;3.80;2.05;;;;;;;;;;5073084;28;20421;-66
2021/01/28 12:49:22;;;;;;;3.28;2.20;;;;;;;;;;5072391;28;20036;-66
2021/01/28 12:51:49;;;;;;;5.43;2.47;;;;;;;;;;5068472;28;20024;-66
2021/01/28 12:54:14;;;;;;;2.97;1.90;;;;;;;;;;5068441;28;20038;-66
2021/01/28 12:56:40;;;;;;;3.23;2.10;;;;;;;;;;5070598;28;20531;-66
2021/01/28 12:59:05;;;;;;;4.40;1.80;;;;;;;;;;5071633;28;20310;-66
2021/01/28 13:01:30;;;;;;;3.43;1.80;;;;;;;;;;5069741;28;20095;-66
2021/01/28 13:03:56;;;;;;;3.67;2.10;;;;;;;;;;5069744;28;20271;-66
2021/01/28 13:06:22;;;;;;;4.53;1.95;;;;;;;;;;5070804;28;20024;-66
2021/01/28 13:08:47;;;;;;;6.18;3.00;;;;;;;;;;5069978;28;20024;-66
2021/01/28 13:11:13;;;;;;;4.03;2.40;;;;;;;;;;5070955;28;20019;-66
2021/01/28 13:13:38;;;;;;;5.93;2.72;;;;;;;;;;5052886;28;20414;-66
2021/01/28 13:16:04;;;;;;;9.07;3.80;;;;;;;;;;5068137;28;20096;-66
2021/01/28 13:18:29;;;;;;;3.50;2.05;;;;;;;;;;5069777;28;20048;-66
2021/01/28 13:20:54;;;;;;;3.28;1.80;;;;;;;;;;5071068;28;20020;-66
2021/01/28 13:23:20;;;;;;;4.20;2.30;;;;;;;;;;5071665;28;20048;-66
2021/01/28 13:25:45;;;;;;;3.30;2.13;;;;;;;;;;5071417;28;20020;-66
2021/01/28 13:28:10;;;;;;;3.58;2.40;;;;;;;;;;5071314;28;20047;-66
2021/01/28 13:30:35;;;;;;;3.85;2.05;;;;;;;;;;5070498;28;20028;-66
2021/01/28 13:33:00;;;;;;;3.83;2.10;;;;;;;;;;5068511;28;20016;-66
2021/01/28 13:35:26;;;;;;;4.05;2.10;;;;;;;;;;5069712;28;20379;-66
2021/01/28 13:37:52;;;;;;;3.75;2.00;;;;;;;;;;5069290;28;20660;-66
2021/01/28 13:40:18;;;;;;;4.22;2.30;;;;;;;;;;5070034;28;20025;-66
2021/01/28 13:42:43;;;;;;;6.15;1.95;;;;;;;;;;5068872;28;20036;-66
2021/01/28 13:45:11;;;;;;;5.25;2.60;;;;;;;;;;5068679;28;20035;-66
2021/01/28 13:47:36;;;;;;;4.10;2.00;;;;;;;;;;5070672;28;20579;-66
2021/01/28 13:50:02;;;;;;;3.58;2.67;;;;;;;;;;5069982;28;20028;-66
2021/01/28 13:52:27;;;;;;;3.78;2.05;;;;;;;;;;5070693;28;20016;-66
2021/01/28 13:54:52;;;;;;;3.22;1.60;;;;;;;;;;5067585;28;20024;-66
2021/01/28 13:57:17;;;;;;;9.20;2.03;;;;;;;;;;5050631;28;20085;-66
2021/01/28 13:59:43;;;;;;;3.07;1.67;;;;;;;;;;5070625;28;20259;-66
2021/01/28 14:02:08;;;;;;;1.90;1.45;;;;;;;;;;5069806;28;20432;-66
2021/01/28 14:04:34;;;;;;;2.58;1.48;;;;;;;;;;5069299;28;20020;-66
2021/01/28 14:07:00;;;;;;;5.35;1.77;;;;;;;;;;5070264;28;20039;-66
2021/01/28 14:09:25;;;;;;;2.38;1.75;;;;;;;;;;5069603;28;20028;-66
2021/01/28 14:11:50;;;;;;;2.10;1.60;;;;;;;;;;5068660;28;20019;-66
2021/01/28 14:14:15;;;;;;;3.42;1.60;;;;;;;;;;5068767;28;20029;-66
2021/01/28 14:16:41;;;;;;;2.65;1.90;;;;;;;;;;5069907;28;20028;-66
2021/01/28 14:19:06;;;;;;;3.70;1.93;;;;;;;;;;5067911;28;20089;-66
2021/01/28 14:21:33;;;;;;;6.68;2.00;;;;;;;;;;5069630;28;20266;-66
2021/01/28 14:23:58;;;;;;;4.30;2.53;;;;;;;;;;5068388;28;20055;-66
2021/01/28 14:26:23;;;;;;;5.38;2.10;;;;;;;;;;5070480;28;20047;-66
2021/01/28 14:28:48;;;;;;;3.00;2.23;;;;;;;;;;5069096;28;20020;-65
2021/01/28 14:31:13;;;;;;;2.85;1.92;;;;;;;;;;5069151;28;20258;-66
2021/01/28 14:33:38;;;;;;;4.97;2.20;;;;;;;;;;5069952;28;20480;-66
2021/01/28 14:36:04;;;;;;;4.30;2.28;;;;;;;;;;5068932;28;20317;-66